createdAt,value
2022-08-27T00:01:59.836Z,101536.78
2022-08-27T00:04:30.804Z,101534.50
2022-08-27T00:07:03.323Z,101528.72
2022-08-27T00:09:32.309Z,101530.00
2022-08-27T00:12:01.191Z,101537.09
2022-08-27T00:14:31.373Z,101536.09
2022-08-27T00:17:03.062Z,101524.88
2022-08-27T00:19:43.102Z,101529.59
2022-08-27T00:22:15.200Z,101525.03
2022-08-27T00:24:48.986Z,101533.16
2022-08-27T00:27:19.238Z,101535.00
2022-08-27T00:29:50.368Z,101528.59
2022-08-27T00:32:21.626Z,101534.41
2022-08-27T00:35:12.442Z,101528.00
2022-08-27T00:37:44.303Z,101528.00
2022-08-27T00:40:16.633Z,101531.69
2022-08-27T00:42:49.712Z,101525.28
2022-08-27T00:45:22.164Z,101528.84
2022-08-27T00:47:55.321Z,101521.75
2022-08-27T00:50:32.312Z,101527.31
2022-08-27T00:53:06.398Z,101524.03
2022-08-27T00:55:38.869Z,101524.75
2022-08-27T00:58:16.071Z,101518.78
2022-08-27T01:00:47.761Z,101519.81
2022-08-27T01:03:19.380Z,101514.69
2022-08-27T01:05:50.683Z,101513.13
2022-08-27T01:08:26.663Z,101515.97
2022-08-27T01:10:58.294Z,101516.97
2022-08-27T01:13:59.361Z,101528.78
2022-08-27T01:16:23.566Z,101516.41
2022-08-27T01:18:53.762Z,101515.84
2022-08-27T01:21:28.682Z,101519.56
2022-08-27T01:24:07.597Z,101516.34
2022-08-27T01:26:37.723Z,101518.16
2022-08-27T01:29:09.945Z,101512.75
2022-08-27T01:31:39.705Z,101513.75
2022-08-27T01:34:08.843Z,101516.47
2022-08-27T01:36:37.253Z,101515.44
2022-08-27T01:39:07.236Z,101517.19
2022-08-27T01:41:37.538Z,101511.78
2022-08-27T01:44:06.181Z,101505.06
2022-08-27T01:46:34.838Z,101512.47
2022-08-27T01:49:03.697Z,101508.75
2022-08-27T01:51:33.089Z,101505.94
2022-08-27T01:54:01.599Z,101504.78
2022-08-27T01:56:31.006Z,101503.06
2022-08-27T01:59:01.606Z,101496.09
2022-08-27T02:01:30.611Z,101504.09
2022-08-27T02:03:59.682Z,101492.56
2022-08-27T02:06:28.726Z,101486.63
2022-08-27T02:08:57.285Z,101489.44
2022-08-27T02:11:25.773Z,101481.09
2022-08-27T02:13:55.485Z,101482.69
2022-08-27T02:16:27.950Z,101482.72
2022-08-27T02:18:57.531Z,101484.72
2022-08-27T02:21:26.299Z,101476.19
2022-08-27T02:23:57.934Z,101471.91
2022-08-27T02:26:27.955Z,101469.38
2022-08-27T02:28:57.113Z,101474.91
2022-08-27T02:31:28.751Z,101476.63
2022-08-27T02:33:59.987Z,101476.63
2022-08-27T02:36:28.413Z,101476.78
2022-08-27T02:38:57.024Z,101480.75
2022-08-27T02:41:25.753Z,101480.03
2022-08-27T02:43:54.133Z,101480.19
2022-08-27T02:46:22.575Z,101477.50
2022-08-27T02:48:54.076Z,101475.53
2022-08-27T02:51:22.812Z,101470.25
2022-08-27T02:53:52.458Z,101472.94
2022-08-27T02:56:23.176Z,101468.56
2022-08-27T02:58:51.674Z,101462.16
2022-08-27T03:01:20.093Z,101466.84
2022-08-27T03:03:50.849Z,101459.03
2022-08-27T03:06:22.232Z,101456.06
2022-08-27T03:08:52.897Z,101456.66
2022-08-27T03:11:23.691Z,101452.81
2022-08-27T03:13:53.478Z,101457.09
2022-08-27T03:16:23.070Z,101462.78
2022-08-27T03:18:54.676Z,101465.63
2022-08-27T03:21:26.612Z,101462.94
2022-08-27T03:23:55.368Z,101473.56
2022-08-27T03:26:24.466Z,101465.75
2022-08-27T03:28:53.093Z,101462.38
2022-08-27T03:31:27.406Z,101460.78
2022-08-27T03:33:57.858Z,101455.69
2022-08-27T03:36:32.011Z,101459.53
2022-08-27T03:39:02.527Z,101459.84
2022-08-27T03:41:53.948Z,101457.81
2022-08-27T03:44:21.526Z,101457.56
2022-08-27T03:46:51.502Z,101454.44
2022-08-27T03:49:21.319Z,101455.81
2022-08-27T03:51:53.154Z,101456.69
2022-08-27T03:54:21.891Z,101458.06
2022-08-27T03:56:51.447Z,101455.38
2022-08-27T03:59:20.257Z,101456.78
2022-08-27T04:01:48.534Z,101453.09
2022-08-27T04:04:17.155Z,101452.25
2022-08-27T04:06:45.843Z,101451.72
2022-08-27T04:09:15.652Z,101453.41
2022-08-27T04:11:47.306Z,101444.91
2022-08-27T04:14:26.284Z,101448.16
2022-08-27T04:16:56.569Z,101448.69
2022-08-27T04:19:27.546Z,101440.50
2022-08-27T04:22:01.610Z,101444.16
2022-08-27T04:24:33.587Z,101451.56
2022-08-27T04:27:03.595Z,101450.28
2022-08-27T04:29:32.521Z,101440.78
2022-08-27T04:32:01.300Z,101446.59
2022-08-27T04:34:30.362Z,101445.63
2022-08-27T04:36:59.196Z,101446.06
2022-08-27T04:39:28.755Z,101447.78
2022-08-27T04:42:01.225Z,101447.22
2022-08-27T04:44:34.908Z,101442.81
2022-08-27T04:47:06.388Z,101449.91
2022-08-27T04:49:35.274Z,101450.19
2022-08-27T04:52:04.411Z,101452.44
2022-08-27T04:54:35.960Z,101456.41
2022-08-27T04:57:07.706Z,101463.81
2022-08-27T04:59:37.041Z,101466.09
2022-08-27T05:02:09.383Z,101460.97
2022-08-27T05:04:40.373Z,101462.97
2022-08-27T05:07:10.442Z,101468.63
2022-08-27T05:09:39.525Z,101473.28
2022-08-27T05:12:11.557Z,101472.44
2022-08-27T05:14:39.708Z,101476.53
2022-08-27T05:17:08.059Z,101475.81
2022-08-27T05:19:36.443Z,101476.09
2022-08-27T05:22:04.879Z,101480.50
2022-08-27T05:24:34.584Z,101475.13
2022-08-27T05:27:03.188Z,101476.53
2022-08-27T05:29:36.072Z,101476.25
2022-08-27T05:32:07.811Z,101473.28
2022-08-27T05:34:36.001Z,101482.84
2022-08-27T05:37:04.596Z,101483.09
2022-08-27T05:39:32.913Z,101490.91
2022-08-27T05:42:01.572Z,101486.22
2022-08-27T05:44:45.015Z,101483.38
2022-08-27T05:47:14.671Z,101485.97
2022-08-27T05:49:42.771Z,101488.91
2022-08-27T05:52:11.994Z,101487.50
2022-08-27T05:54:44.103Z,101481.78
2022-08-27T05:57:13.077Z,101484.06
2022-08-27T06:00:02.794Z,101491.56
2022-08-27T06:02:37.359Z,101488.59
2022-08-27T06:05:06.718Z,101481.63
2022-08-27T06:07:36.353Z,101485.75
2022-08-27T06:10:07.703Z,101492.56
2022-08-27T06:12:37.014Z,101496.69
2022-08-27T06:15:06.156Z,101496.56
2022-08-27T06:17:35.828Z,101496.75
2022-08-27T06:20:04.600Z,101495.31
2022-08-27T06:22:33.859Z,101496.31
2022-08-27T06:25:02.194Z,101496.75
2022-08-27T06:27:33.627Z,101497.28
2022-08-27T06:30:02.556Z,101489.63
2022-08-27T06:32:32.621Z,101489.91
2022-08-27T06:35:02.385Z,101492.88
2022-08-27T06:37:31.202Z,101498.84
2022-08-27T06:39:59.631Z,101495.28
2022-08-27T06:42:36.018Z,101498.53
2022-08-27T06:45:06.777Z,101491.16
2022-08-27T06:47:36.852Z,101489.72
2022-08-27T06:50:07.890Z,101484.75
2022-08-27T06:52:36.180Z,101491.41
2022-08-27T06:55:08.047Z,101487.97
2022-08-27T06:57:38.706Z,101494.38
2022-08-27T07:00:08.883Z,101488.53
2022-08-27T07:02:49.810Z,101504.56
2022-08-27T07:05:20.887Z,101497.72
2022-08-27T07:07:49.299Z,101496.09
2022-08-27T07:10:17.686Z,101506.19
2022-08-27T07:12:45.867Z,101510.97
2022-08-27T07:15:14.750Z,101503.44
2022-08-27T07:17:44.876Z,101508.94
2022-08-27T07:20:14.505Z,101517.00
2022-08-27T07:23:02.309Z,101516.69
2022-08-27T07:25:33.351Z,101514.78
2022-08-27T07:28:01.600Z,101507.47
2022-08-27T07:30:30.221Z,101512.31
2022-08-27T07:32:58.742Z,101513.94
2022-08-27T07:35:27.096Z,101512.28
2022-08-27T07:37:55.241Z,101520.34
2022-08-27T07:40:25.817Z,101518.72
2022-08-27T07:43:07.901Z,101514.38
2022-08-27T07:45:36.960Z,101522.25
2022-08-27T07:48:05.329Z,101515.06
2022-08-27T07:50:35.251Z,101507.31
2022-08-27T07:53:04.793Z,101507.94
2022-08-27T07:55:37.484Z,101508.34
2022-08-27T07:58:06.684Z,101502.28
2022-08-27T08:00:39.431Z,101515.53
2022-08-27T08:03:07.574Z,101511.84
2022-08-27T08:05:35.979Z,101511.75
2022-08-27T08:08:05.131Z,101510.25
2022-08-27T08:10:37.237Z,101504.72
2022-08-27T08:13:07.578Z,101511.72
2022-08-27T08:15:36.299Z,101507.81
2022-08-27T08:18:07.961Z,101517.84
2022-08-27T08:20:56.978Z,101516.88
2022-08-27T08:23:24.864Z,101511.34
2022-08-27T08:25:55.640Z,101525.09
2022-08-27T08:28:24.212Z,101521.72
2022-08-27T08:30:53.746Z,101520.56
2022-08-27T08:33:23.722Z,101522.81
2022-08-27T08:35:53.084Z,101527.22
2022-08-27T08:38:23.466Z,101524.84
2022-08-27T08:40:55.552Z,101521.66
2022-08-27T08:43:31.852Z,101513.31
2022-08-27T08:46:08.807Z,101515.72
2022-08-27T08:48:39.222Z,101524.19
2022-08-27T08:51:21.171Z,101523.88
2022-08-27T08:53:55.275Z,101523.72
2022-08-27T08:56:42.348Z,101516.25
2022-08-27T08:59:19.329Z,101526.13
2022-08-27T09:01:51.663Z,101524.59
2022-08-27T09:04:20.264Z,101520.22
2022-08-27T09:06:57.350Z,101516.81
2022-08-27T09:09:34.167Z,101519.16
2022-08-27T09:12:10.507Z,101526.28
2022-08-27T09:14:46.178Z,101524.22
2022-08-27T09:17:17.498Z,101529.34
2022-08-27T09:19:48.029Z,101524.56
2022-08-27T09:22:35.315Z,101530.66
2022-08-27T09:25:10.590Z,101530.28
2022-08-27T09:27:44.411Z,101526.53
2022-08-27T09:30:20.949Z,101528.91
2022-08-27T09:33:00.758Z,101527.16
2022-08-27T09:35:38.807Z,101528.81
2022-08-27T09:38:08.124Z,101527.75
2022-08-27T09:40:43.643Z,101532.78
2022-08-27T09:43:24.720Z,101532.59
2022-08-27T09:45:56.860Z,101538.97
2022-08-27T09:48:28.409Z,101533.38
2022-08-27T09:50:59.912Z,101522.72
2022-08-27T09:53:33.697Z,101532.66
2022-08-27T09:56:03.857Z,101529.59
2022-08-27T09:58:51.898Z,101525.16
2022-08-27T10:01:31.508Z,101521.78
2022-08-27T10:04:13.070Z,101514.59
2022-08-27T10:06:48.590Z,101521.25
2022-08-27T10:09:24.043Z,101516.88
2022-08-27T10:12:01.996Z,101520.16
2022-08-27T10:14:42.215Z,101528.47
2022-08-27T10:17:19.239Z,101523.75
2022-08-27T10:20:05.390Z,101529.41
2022-08-27T10:22:48.657Z,101518.56
2022-08-27T10:25:31.517Z,101522.72
2022-08-27T10:28:12.534Z,101526.72
2022-08-27T10:31:05.662Z,101526.47
2022-08-27T10:33:54.207Z,101520.63
2022-08-27T10:36:41.484Z,101522.44
2022-08-27T10:39:22.833Z,101513.50
2022-08-27T10:42:09.527Z,101512.00
2022-08-27T10:44:56.731Z,101515.69
2022-08-27T10:47:48.458Z,101512.13
2022-08-27T10:50:27.482Z,101507.50
2022-08-27T10:53:16.975Z,101505.91
2022-08-27T10:55:52.683Z,101509.94
2022-08-27T10:58:37.583Z,101512.28
2022-08-27T11:01:14.676Z,101508.13
2022-08-27T11:03:50.102Z,101509.44
2022-08-27T11:09:45.017Z,101508.22
2022-08-27T11:12:19.757Z,101504.28
2022-08-27T11:14:55.745Z,101506.38
2022-08-27T11:17:32.663Z,101495.47
2022-08-27T11:20:07.634Z,101498.47
2022-08-27T11:22:42.853Z,101499.03
2022-08-27T11:25:28.644Z,101493.56
2022-08-27T11:27:59.803Z,101488.38
2022-08-27T11:30:41.610Z,101486.69
2022-08-27T11:33:20.675Z,101484.59
2022-08-27T11:39:17.187Z,101477.94
2022-08-27T11:42:11.675Z,101484.59
2022-08-27T11:44:46.976Z,101484.97
2022-08-27T11:47:24.210Z,101489.41
2022-08-27T11:49:56.437Z,101489.00
2022-08-27T11:52:32.674Z,101490.84
2022-08-27T11:55:27.689Z,101487.56
2022-08-27T11:58:09.256Z,101503.25
2022-08-27T12:00:40.292Z,101495.09
2022-08-27T12:03:13.322Z,101498.75
2022-08-27T12:05:45.371Z,101499.59
2022-08-27T12:11:33.353Z,101486.69
2022-08-27T12:14:12.546Z,101490.44
2022-08-27T12:16:50.792Z,101490.66
2022-08-27T12:19:44.920Z,101490.84
2022-08-27T12:23:04.531Z,101494.84
2022-08-27T12:25:34.554Z,101495.66
2022-08-27T12:28:12.247Z,101491.00
2022-08-27T12:31:06.909Z,101486.53
2022-08-27T12:33:54.947Z,101482.72
2022-08-27T12:36:28.790Z,101480.81
2022-08-27T12:39:00.026Z,101482.94
2022-08-27T12:41:44.084Z,101478.31
2022-08-27T12:44:16.930Z,101483.19
2022-08-27T12:46:51.134Z,101487.88
2022-08-27T12:52:23.335Z,101485.59
2022-08-27T12:55:09.943Z,101483.06
2022-08-27T12:58:04.434Z,101479.50
2022-08-27T13:00:45.346Z,101480.56
2022-08-27T13:03:26.799Z,101470.28
2022-08-27T13:05:57.731Z,101471.34
2022-08-27T13:08:45.159Z,101472.88
2022-08-27T13:11:27.370Z,101468.00
2022-08-27T13:14:11.974Z,101463.00
2022-08-27T13:16:47.250Z,101468.25
2022-08-27T13:19:29.429Z,101469.06
2022-08-27T13:22:00.268Z,101459.38
2022-08-27T13:24:53.430Z,101468.00
2022-08-27T13:27:47.059Z,101461.06
2022-08-27T13:30:35.641Z,101469.28
2022-08-27T13:33:10.465Z,101457.03
2022-08-27T13:35:43.969Z,101462.50
2022-08-27T13:38:12.897Z,101461.84
2022-08-27T13:41:18.095Z,101455.22
2022-08-27T13:43:49.708Z,101455.03
2022-08-27T13:46:49.666Z,101452.47
2022-08-27T13:49:28.090Z,101448.44
2022-08-27T13:52:17.688Z,101450.03
2022-08-27T13:54:47.278Z,101453.91
2022-08-27T13:57:26.712Z,101456.25
2022-08-27T14:00:08.389Z,101450.34
2022-08-27T14:02:36.831Z,101448.00
2022-08-27T14:05:14.386Z,101449.19
2022-08-27T14:07:52.917Z,101440.34
2022-08-27T14:13:44.022Z,101443.00
2022-08-27T14:19:36.932Z,101437.94
2022-08-27T14:22:21.948Z,101438.28
2022-08-27T14:24:54.193Z,101439.78
2022-08-27T14:27:25.543Z,101438.16
2022-08-27T14:29:55.740Z,101429.03
2022-08-27T14:32:41.953Z,101432.47
2022-08-27T14:35:30.752Z,101424.69
2022-08-27T14:38:03.820Z,101428.78
2022-08-27T14:40:37.672Z,101434.75
2022-08-27T14:43:10.961Z,101434.94
2022-08-27T14:45:41.687Z,101427.22
2022-08-27T14:48:18.523Z,101418.94
2022-08-27T14:51:11.086Z,101423.41
2022-08-27T14:53:49.012Z,101430.19
2022-08-27T14:56:20.918Z,101428.09
2022-08-27T14:58:49.647Z,101431.94
2022-08-27T15:01:32.484Z,101429.34
2022-08-27T15:04:03.244Z,101428.03
2022-08-27T15:06:32.399Z,101429.81
2022-08-27T15:09:02.242Z,101436.63
2022-08-27T15:11:36.757Z,101429.38
2022-08-27T15:14:19.210Z,101432.34
2022-08-27T15:16:48.996Z,101440.09
2022-08-27T15:19:17.813Z,101444.50
2022-08-27T15:21:48.596Z,101435.63
2022-08-27T15:24:20.718Z,101434.50
2022-08-27T15:27:06.394Z,101433.41
2022-08-27T15:29:49.888Z,101437.66
2022-08-27T15:32:57.538Z,101433.81
2022-08-27T15:46:46.899Z,101438.13
2022-08-27T15:49:21.985Z,101440.28
2022-08-27T15:52:02.785Z,101446.00
2022-08-27T15:57:42.503Z,101437.50
2022-08-27T16:00:38.637Z,101448.91
2022-08-27T16:03:35.465Z,101445.59
2022-08-27T16:06:05.389Z,101439.41
2022-08-27T16:11:52.127Z,101449.56
2022-08-27T16:14:21.986Z,101439.53
2022-08-27T16:16:51.035Z,101439.34
2022-08-27T16:19:20.728Z,101428.31
2022-08-27T16:21:51.163Z,101438.53
2022-08-27T16:24:23.501Z,101429.06
2022-08-27T16:26:56.661Z,101445.59
2022-08-27T16:29:28.518Z,101447.72
2022-08-27T16:32:19.445Z,101444.66
2022-08-27T16:34:56.121Z,101439.59
2022-08-27T16:37:25.912Z,101433.06
2022-08-27T16:39:57.411Z,101435.22
2022-08-27T16:42:27.267Z,101433.81
2022-08-27T16:45:06.562Z,101430.06
2022-08-27T16:47:57.489Z,101430.47
2022-08-27T16:50:34.015Z,101430.94
2022-08-27T16:53:04.378Z,101428.13
2022-08-27T16:55:35.276Z,101420.84
2022-08-27T16:58:29.198Z,101425.34
2022-08-27T17:01:03.765Z,101423.22
2022-08-27T17:03:44.102Z,101420.13
2022-08-27T17:06:23.787Z,101417.84
2022-08-27T17:08:57.661Z,101423.38
2022-08-27T17:11:28.991Z,101422.41
2022-08-27T17:14:02.461Z,101420.72
2022-08-27T17:16:43.649Z,101419.94
2022-08-27T17:19:16.241Z,101416.91
2022-08-27T17:21:50.817Z,101419.16
2022-08-27T17:24:19.277Z,101416.06
2022-08-27T17:26:47.623Z,101399.06
2022-08-27T17:29:19.362Z,101400.09
2022-08-27T17:31:49.050Z,101407.28
2022-08-27T17:34:24.190Z,101405.00
2022-08-27T17:39:37.185Z,101406.66
2022-08-27T17:42:12.233Z,101393.69
2022-08-27T17:44:45.441Z,101402.41
2022-08-27T17:47:14.347Z,101399.72
2022-08-27T17:49:43.854Z,101401.13
2022-08-27T17:52:19.257Z,101404.44
2022-08-27T17:54:51.255Z,101409.97
2022-08-27T17:57:22.592Z,101407.41
2022-08-27T17:59:53.783Z,101408.34
2022-08-27T18:02:28.285Z,101403.56
2022-08-27T18:04:56.738Z,101406.94
2022-08-27T18:07:25.288Z,101400.78
2022-08-27T18:09:54.657Z,101400.25
2022-08-27T18:12:26.209Z,101396.56
2022-08-27T18:15:14.508Z,101399.19
2022-08-27T18:20:29.552Z,101398.38
2022-08-27T18:22:58.192Z,101402.03
2022-08-27T18:25:33.847Z,101400.78
2022-08-27T18:28:07.583Z,101402.72
2022-08-27T18:30:41.074Z,101412.06
2022-08-27T18:33:09.687Z,101405.75
2022-08-27T18:35:39.123Z,101413.25
2022-08-27T18:38:08.200Z,101412.69
2022-08-27T18:40:40.828Z,101409.84
2022-08-27T18:43:09.129Z,101413.63
2022-08-27T18:45:39.616Z,101415.13
2022-08-27T18:48:15.154Z,101406.81
2022-08-27T18:50:47.293Z,101409.19
2022-08-27T18:53:18.499Z,101414.13
2022-08-27T18:55:46.899Z,101408.53
2022-08-27T18:58:15.585Z,101407.53
2022-08-27T19:00:48.900Z,101413.19
2022-08-27T19:03:22.053Z,101413.25
2022-08-27T19:05:55.082Z,101421.66
2022-08-27T19:08:24.929Z,101418.31
2022-08-27T19:10:56.888Z,101420.53
2022-08-27T19:13:27.720Z,101437.34
2022-08-27T19:16:00.567Z,101436.50
2022-08-27T19:18:32.384Z,101434.59
2022-08-27T19:21:01.113Z,101435.94
2022-08-27T19:23:29.609Z,101433.13
2022-08-27T19:26:00.070Z,101439.50
2022-08-27T19:28:33.216Z,101440.63
2022-08-27T19:31:02.889Z,101440.41
2022-08-27T19:33:31.548Z,101445.06
2022-08-27T19:36:02.282Z,101439.03
2022-08-27T19:38:33.391Z,101447.75
2022-08-27T19:41:01.748Z,101450.84
2022-08-27T19:43:30.020Z,101457.03
2022-08-27T19:46:00.502Z,101445.53
2022-08-27T19:48:30.363Z,101456.47
2022-08-27T19:50:59.466Z,101450.44
2022-08-27T19:53:27.902Z,101455.38
2022-08-27T19:55:56.352Z,101458.97
2022-08-27T19:58:24.563Z,101471.56
2022-08-27T20:00:53.192Z,101481.06
2022-08-27T20:03:21.649Z,101479.53
2022-08-27T20:05:54.675Z,101474.72
2022-08-27T20:08:22.943Z,101488.50
2022-08-27T20:10:51.408Z,101480.31
2022-08-27T20:13:23.148Z,101476.25
2022-08-27T20:15:52.010Z,101477.78
2022-08-27T20:18:22.281Z,101473.34
2022-08-27T20:20:50.433Z,101472.00
2022-08-27T20:23:20.171Z,101482.44
2022-08-27T20:25:50.821Z,101483.09
2022-08-27T20:28:38.298Z,101486.84
2022-08-27T20:31:08.320Z,101499.47
2022-08-27T20:33:36.629Z,101500.66
2022-08-27T20:36:05.483Z,101496.25
2022-08-27T20:38:35.998Z,101499.00
2022-08-27T20:41:04.742Z,101500.16
2022-08-27T20:43:32.985Z,101501.53
2022-08-27T20:46:02.452Z,101499.50
2022-08-27T20:48:30.791Z,101496.47
2022-08-27T20:50:59.016Z,101498.16
2022-08-27T20:53:27.246Z,101496.31
2022-08-27T20:55:57.013Z,101494.31
2022-08-27T20:58:43.218Z,101495.16
2022-08-27T21:01:12.540Z,101497.75
2022-08-27T21:03:41.929Z,101495.56
2022-08-27T21:06:10.288Z,101493.19
2022-08-27T21:08:39.021Z,101493.56
2022-08-27T21:11:12.793Z,101494.06
2022-08-27T21:13:55.136Z,101499.19
2022-08-27T21:16:29.872Z,101499.53
2022-08-27T21:18:58.092Z,101501.59
2022-08-27T21:21:26.354Z,101497.72
2022-08-27T21:23:54.710Z,101502.66
2022-08-27T21:26:26.269Z,101502.97
2022-08-27T21:28:59.261Z,101499.06
2022-08-27T21:31:29.494Z,101492.97
2022-08-27T21:34:00.439Z,101502.47
2022-08-27T21:36:28.774Z,101506.03
2022-08-27T21:38:57.347Z,101505.53
2022-08-27T21:41:27.515Z,101501.97
2022-08-27T21:44:04.353Z,101510.97
2022-08-27T21:46:34.864Z,101505.53
2022-08-27T21:49:03.823Z,101513.50
2022-08-27T21:51:34.622Z,101510.97
2022-08-27T21:54:03.001Z,101505.34
2022-08-27T21:56:35.317Z,101506.56
2022-08-27T21:59:03.652Z,101512.00
2022-08-27T22:01:34.625Z,101514.72
2022-08-27T22:04:03.177Z,101508.94
2022-08-27T22:06:31.556Z,101512.66
2022-08-27T22:08:59.803Z,101506.56
2022-08-27T22:11:30.581Z,101521.31
2022-08-27T22:14:01.369Z,101508.97
2022-08-27T22:16:30.253Z,101511.34
2022-08-27T22:18:58.582Z,101513.38
2022-08-27T22:21:28.479Z,101518.13
2022-08-27T22:23:57.111Z,101520.19
2022-08-27T22:26:25.549Z,101513.72
2022-08-27T22:28:54.034Z,101513.41
2022-08-27T22:31:27.235Z,101506.59
2022-08-27T22:33:55.631Z,101507.63
2022-08-27T22:36:24.432Z,101507.78
2022-08-27T22:38:52.934Z,101508.66
2022-08-27T22:41:22.187Z,101504.41
2022-08-27T22:43:50.947Z,101513.56
2022-08-27T22:46:26.664Z,101514.75
2022-08-27T22:48:55.111Z,101506.13
2022-08-27T22:51:23.863Z,101507.31
2022-08-27T22:53:52.155Z,101510.34
2022-08-27T22:56:21.864Z,101505.59
2022-08-27T22:58:50.229Z,101507.81
2022-08-27T23:01:20.316Z,101502.88
2022-08-27T23:03:52.602Z,101503.56
2022-08-27T23:06:20.831Z,101503.38
2022-08-27T23:08:49.220Z,101502.53
2022-08-27T23:11:17.880Z,101496.44
2022-08-27T23:13:47.267Z,101505.25
2022-08-27T23:16:17.028Z,101498.47
2022-08-27T23:18:45.865Z,101501.69
2022-08-27T23:21:15.950Z,101502.72
2022-08-27T23:23:44.613Z,101494.75
2022-08-27T23:26:30.306Z,101496.28
2022-08-27T23:28:58.701Z,101498.13
2022-08-27T23:31:28.080Z,101513.03
2022-08-27T23:33:57.453Z,101496.75
2022-08-27T23:36:29.392Z,101502.84
2022-08-27T23:38:58.485Z,101499.78
2022-08-27T23:41:29.356Z,101503.53
2022-08-27T23:43:58.966Z,101499.59
2022-08-27T23:46:27.172Z,101496.22
2022-08-27T23:48:56.250Z,101490.63
2022-08-27T23:51:25.426Z,101495.69
2022-08-27T23:53:55.007Z,101503.69
2022-08-27T23:56:30.010Z,101495.88
2022-08-27T23:58:59.911Z,101501.47
